Time;durP1;ratioP1;P1;durP2;ratioP2;P2;SDS_P1;SDS_P2;PMS_P1;PMS_P2;Temp;Humidity;BMP_temperature;BMP_pressure;BME280_temperature;BME280_humidity;BME280_pressure;Samples;Min_cycle;Max_cycle;Signal;HPM_P1;HPM_P2
2023/06/23 00:01:22;;;;;;;;;;;;;;;;;;5201817;22;19925;-81
2023/06/23 00:03:45;;;;;;;;;;;;;;;;;;5179053;22;20157;-81
2023/06/23 00:06:05;;;;;;;;;;;;;;;;;;5178921;22;19926;-81
2023/06/23 00:08:25;;;;;;;;;;;;;;;;;;5201733;22;19942;-80
2023/06/23 00:10:45;;;;;;;;;;;;;;;;;;5178992;22;19933;-81
2023/06/23 00:13:06;;;;;;;;;;;;;;;;;;5201649;22;20226;-80
2023/06/23 00:15:26;;;;;;;;;;;;;;;;;;5178264;22;19942;-80
2023/06/23 00:17:46;;;;;;;;;;;;;;;;;;5187475;22;19989;-81
2023/06/23 00:20:09;;;;;;;;;;;;;;;;;;5201566;22;19954;-81
2023/06/23 00:22:31;;;;;;;;;;;;;;;;;;5201497;22;19918;-81
2023/06/23 00:24:51;;;;;;;;;;;;;;;;;;5187251;22;19918;-81
2023/06/23 00:27:11;;;;;;;;;;;;;;;;;;5178715;22;20313;-81
2023/06/23 00:29:31;;;;;;;;;;;;;;;;;;5210044;22;20153;-81
2023/06/23 00:31:51;;;;;;;;;;;;;;;;;;5201580;22;20141;-81
2023/06/23 00:34:11;;;;;;;;;;;;;;;;;;5201608;22;20293;-81
2023/06/23 00:36:32;;;;;;;;;;;;;;;;;;5178742;22;19926;-80
2023/06/23 00:38:52;;;;;;;;;;;;;;;;;;5178742;22;20185;-80
2023/06/23 00:41:12;;;;;;;;;;;;;;;;;;5201577;22;19947;-80
2023/06/23 00:43:32;;;;;;;;;;;;;;;;;;5201618;22;19954;-81
2023/06/23 00:45:52;;;;;;;;;;;;;;;;;;5178651;22;19918;-81
2023/06/23 00:48:15;;;;;;;;;;;;;;;;;;5178767;22;19918;-81
2023/06/23 00:50:36;;;;;;;;;;;;;;;;;;5201526;22;19977;-81
2023/06/23 00:52:57;;;;;;;;;;;;;;;;;;5178810;22;19918;-80
2023/06/23 00:55:17;;;;;;;;;;;;;;;;;;5201583;22;19972;-81
2023/06/23 00:57:37;;;;;;;;;;;;;;;;;;5187243;22;19957;-80
2023/06/23 00:59:58;;;;;;;;;;;;;;;;;;5209977;22;19926;-81
2023/06/23 01:02:20;;;;;;;;;;;;;;;;;;5178820;22;20177;-82
2023/06/23 01:04:40;;;;;;;;;;;;;;;;;;5198967;22;20203;-82
2023/06/23 01:07:00;;;;;;;;;;;;;;;;;;5179388;22;20009;-81
2023/06/23 01:09:21;;;;;;;;;;;;;;;;;;5202071;22;20116;-81
2023/06/23 01:11:43;;;;;;;;;;;;;;;;;;5179707;22;19918;-81
2023/06/23 01:14:03;;;;;;;;;;;;;;;;;;5187941;22;20283;-81
2023/06/23 01:16:23;;;;;;;;;;;;;;;;;;5179593;22;19938;-81
2023/06/23 01:18:44;;;;;;;;;;;;;;;;;;5210769;22;19942;-82
2023/06/23 01:21:04;;;;;;;;;;;;;;;;;;5202213;22;19968;-81
2023/06/23 01:23:24;;;;;;;;;;;;;;;;;;5202118;22;20144;-82
2023/06/23 01:25:44;;;;;;;;;;;;;;;;;;5210410;22;19922;-81
2023/06/23 01:28:05;;;;;;;;;;;;;;;;;;5202214;22;19973;-81
2023/06/23 01:30:26;;;;;;;;;;;;;;;;;;5179454;22;19927;-82
2023/06/23 01:32:46;;;;;;;;;;;;;;;;;;5202133;22;20264;-82
2023/06/23 01:35:06;;;;;;;;;;;;;;;;;;5202254;22;20756;-82
2023/06/23 01:37:27;;;;;;;;;;;;;;;;;;5202194;22;19934;-81
2023/06/23 01:39:47;;;;;;;;;;;;;;;;;;5182078;22;19917;-81
2023/06/23 01:42:07;;;;;;;;;;;;;;;;;;5227761;22;19917;-81
2023/06/23 01:44:29;;;;;;;;;;;;;;;;;;5227672;22;20139;-81
2023/06/23 01:46:49;;;;;;;;;;;;;;;;;;5236193;22;19948;-82
2023/06/23 01:49:10;;;;;;;;;;;;;;;;;;5227765;22;19933;-82
2023/06/23 01:51:30;;;;;;;;;;;;;;;;;;5204829;22;19918;-81
2023/06/23 01:53:51;;;;;;;;;;;;;;;;;;5227593;22;20291;-82
2023/06/23 01:56:11;;;;;;;;;;;;;;;;;;5227683;22;19917;-82
2023/06/23 01:58:32;;;;;;;;;;;;;;;;;;5227683;22;19918;-81
2023/06/23 02:00:52;;;;;;;;;;;;;;;;;;5227533;22;19917;-81
2023/06/23 02:03:12;;;;;;;;;;;;;;;;;;5204721;22;19957;-82
2023/06/23 02:05:32;;;;;;;;;;;;;;;;;;5204752;22;20241;-81
2023/06/23 02:07:52;;;;;;;;;;;;;;;;;;5236164;22;19917;-81
2023/06/23 02:10:13;;;;;;;;;;;;;;;;;;5227585;22;19956;-81
2023/06/23 02:12:33;;;;;;;;;;;;;;;;;;5227636;22;19918;-81
2023/06/23 02:14:53;;;;;;;;;;;;;;;;;;5204565;22;19962;-81
2023/06/23 02:17:13;;;;;;;;;;;;;;;;;;5204535;22;19937;-81
2023/06/23 02:19:33;;;;;;;;;;;;;;;;;;5236220;22;19952;-82
2023/06/23 02:21:53;;;;;;;;;;;;;;;;;;5227615;22;20005;-81
2023/06/23 02:24:14;;;;;;;;;;;;;;;;;;5204566;22;19934;-81
2023/06/23 02:26:34;;;;;;;;;;;;;;;;;;5227507;22;19917;-81
2023/06/23 02:28:55;;;;;;;;;;;;;;;;;;5227502;22;20001;-81
2023/06/23 02:31:15;;;;;;;;;;;;;;;;;;5227393;22;19918;-81
2023/06/23 02:33:38;;;;;;;;;;;;;;;;;;5204481;22;19959;-81
2023/06/23 02:35:57;;;;;;;;;;;;;;;;;;5204556;22;19973;-81
2023/06/23 02:38:21;;;;;;;;;;;;;;;;;;5203877;22;19918;-81
2023/06/23 02:40:41;;;;;;;;;;;;;;;;;;5235990;22;19917;-81
2023/06/23 02:43:02;;;;;;;;;;;;;;;;;;5204542;22;19948;-81
2023/06/23 02:45:22;;;;;;;;;;;;;;;;;;5227386;22;19917;-81
2023/06/23 02:47:42;;;;;;;;;;;;;;;;;;5204360;22;19918;-81
2023/06/23 02:50:03;;;;;;;;;;;;;;;;;;5227401;22;19918;-81
2023/06/23 02:52:23;;;;;;;;;;;;;;;;;;5227353;22;19918;-81
2023/06/23 02:54:43;;;;;;;;;;;;;;;;;;5204337;22;19965;-81
2023/06/23 02:57:03;;;;;;;;;;;;;;;;;;5204399;22;20235;-81
2023/06/23 02:59:24;;;;;;;;;;;;;;;;;;5227326;22;19974;-81
2023/06/23 03:01:45;;;;;;;;;;;;;;;;;;5227203;22;19917;-81
2023/06/23 03:04:05;;;;;;;;;;;;;;;;;;5227317;22;19918;-81
2023/06/23 03:06:25;;;;;;;;;;;;;;;;;;5227203;22;19917;-81
2023/06/23 03:08:47;;;;;;;;;;;;;;;;;;5204385;22;19918;-81
2023/06/23 03:11:07;;;;;;;;;;;;;;;;;;5227186;22;19954;-81
2023/06/23 03:13:28;;;;;;;;;;;;;;;;;;5227257;22;19918;-81
2023/06/23 03:15:48;;;;;;;;;;;;;;;;;;5204221;22;19981;-81
2023/06/23 03:18:08;;;;;;;;;;;;;;;;;;5227229;22;19918;-81
2023/06/23 03:20:29;;;;;;;;;;;;;;;;;;5203307;22;19934;-81
2023/06/23 03:22:49;;;;;;;;;;;;;;;;;;5227121;22;19978;-81
2023/06/23 03:25:09;;;;;;;;;;;;;;;;;;5226978;22;19946;-81
2023/06/23 03:27:30;;;;;;;;;;;;;;;;;;5226968;22;19933;-81
2023/06/23 03:29:52;;;;;;;;;;;;;;;;;;5227101;22;19952;-82
2023/06/23 03:32:12;;;;;;;;;;;;;;;;;;5203990;22;19919;-81
2023/06/23 03:34:33;;;;;;;;;;;;;;;;;;5226994;22;19962;-81
2023/06/23 03:36:53;;;;;;;;;;;;;;;;;;5227078;22;19926;-81
2023/06/23 03:39:15;;;;;;;;;;;;;;;;;;5226975;22;19952;-81
2023/06/23 03:41:35;;;;;;;;;;;;;;;;;;5226917;22;19941;-81
2023/06/23 03:43:56;;;;;;;;;;;;;;;;;;5235594;22;19917;-81
2023/06/23 03:46:16;;;;;;;;;;;;;;;;;;5212388;22;19918;-81
2023/06/23 03:48:36;;;;;;;;;;;;;;;;;;5204015;22;19918;-81
2023/06/23 03:50:56;;;;;;;;;;;;;;;;;;5228254;22;19918;-81
2023/06/23 03:53:17;;;;;;;;;;;;;;;;;;5205187;22;19918;-81
2023/06/23 03:55:37;;;;;;;;;;;;;;;;;;5228088;22;19925;-81
2023/06/23 03:57:58;;;;;;;;;;;;;;;;;;5228159;22;19966;-81
2023/06/23 04:00:18;;;;;;;;;;;;;;;;;;5228174;22;19956;-81
2023/06/23 04:02:38;;;;;;;;;;;;;;;;;;5228415;22;20117;-78
2023/06/23 04:04:58;;;;;;;;;;;;;;;;;;5228089;22;19956;-76
2023/06/23 04:07:19;;;;;;;;;;;;;;;;;;5228043;22;19976;-75
2023/06/23 04:09:39;;;;;;;;;;;;;;;;;;5205144;22;19990;-75
2023/06/23 04:11:59;;;;;;;;;;;;;;;;;;5213631;22;19926;-75
2023/06/23 04:14:19;;;;;;;;;;;;;;;;;;5228141;22;20106;-75
2023/06/23 04:16:43;;;;;;;;;;;;;;;;;;5228023;22;19918;-75
2023/06/23 04:19:04;;;;;;;;;;;;;;;;;;5205068;22;19918;-75
2023/06/23 04:21:24;;;;;;;;;;;;;;;;;;5180574;22;20276;-75
2023/06/23 04:23:44;;;;;;;;;;;;;;;;;;5228072;22;19921;-75
2023/06/23 04:26:05;;;;;;;;;;;;;;;;;;5204878;22;19917;-75
2023/06/23 04:28:25;;;;;;;;;;;;;;;;;;5205028;22;20416;-75
2023/06/23 04:30:45;;;;;;;;;;;;;;;;;;5228033;22;20169;-75
2023/06/23 04:33:06;;;;;;;;;;;;;;;;;;5227945;22;19973;-75
2023/06/23 04:35:26;;;;;;;;;;;;;;;;;;5227935;22;19918;-75
2023/06/23 04:37:48;;;;;;;;;;;;;;;;;;5205321;22;19918;-75
2023/06/23 04:40:08;;;;;;;;;;;;;;;;;;5204955;22;19953;-75
2023/06/23 04:42:28;;;;;;;;;;;;;;;;;;5227935;22;20228;-75
2023/06/23 04:44:49;;;;;;;;;;;;;;;;;;5227973;22;19956;-75
2023/06/23 04:47:09;;;;;;;;;;;;;;;;;;5204883;22;20124;-75
2023/06/23 04:49:29;;;;;;;;;;;;;;;;;;5204891;22;19953;-75
2023/06/23 04:51:49;;;;;;;;;;;;;;;;;;5205028;22;20106;-75
2023/06/23 04:54:12;;;;;;;;;;;;;;;;;;5205524;22;20216;-75
2023/06/23 04:56:33;;;;;;;;;;;;;;;;;;5204970;22;19926;-75
2023/06/23 04:58:54;;;;;;;;;;;;;;;;;;5204950;22;19918;-75
2023/06/23 05:01:14;;;;;;;;;;;;;;;;;;5236192;22;19917;-75
2023/06/23 05:03:34;;;;;;;;;;;;;;;;;;5227831;22;19956;-75
2023/06/23 05:05:56;;;;;;;;;;;;;;;;;;5204844;22;19917;-75
2023/06/23 05:08:17;;;;;;;;;;;;;;;;;;5204980;22;19958;-75
2023/06/23 05:10:37;;;;;;;;;;;;;;;;;;5227887;22;19980;-75
2023/06/23 05:12:57;;;;;;;;;;;;;;;;;;5204856;22;20101;-75
2023/06/23 05:15:17;;;;;;;;;;;;;;;;;;5227889;22;19918;-77
2023/06/23 05:17:38;;;;;;;;;;;;;;;;;;5204915;22;19917;-79
2023/06/23 05:19:58;;;;;;;;;;;;;;;;;;5180968;22;19918;-80
2023/06/23 05:22:18;;;;;;;;;;;;;;;;;;5228110;22;19965;-80
2023/06/23 05:24:39;;;;;;;;;;;;;;;;;;5204860;22;19954;-80
2023/06/23 05:26:59;;;;;;;;;;;;;;;;;;5227611;22;19918;-80
2023/06/23 05:29:19;;;;;;;;;;;;;;;;;;5204813;22;19918;-80
2023/06/23 05:31:40;;;;;;;;;;;;;;;;;;5227910;22;20034;-80
2023/06/23 05:34:00;;;;;;;;;;;;;;;;;;5227715;22;19949;-80
2023/06/23 05:36:20;;;;;;;;;;;;;;;;;;5213306;22;19957;-80
2023/06/23 05:38:41;;;;;;;;;;;;;;;;;;5227784;22;19945;-80
2023/06/23 05:41:01;;;;;;;;;;;;;;;;;;5227651;22;20109;-80
2023/06/23 05:43:21;;;;;;;;;;;;;;;;;;5204760;22;19957;-80
2023/06/23 05:45:41;;;;;;;;;;;;;;;;;;5227753;22;19918;-80
2023/06/23 05:48:02;;;;;;;;;;;;;;;;;;5204732;22;19918;-80
2023/06/23 05:50:22;;;;;;;;;;;;;;;;;;5236187;22;19945;-80
2023/06/23 05:52:43;;;;;;;;;;;;;;;;;;5204767;22;19926;-80
2023/06/23 05:55:03;;;;;;;;;;;;;;;;;;5227669;22;19952;-80
2023/06/23 05:57:23;;;;;;;;;;;;;;;;;;5204643;22;20124;-80
2023/06/23 05:59:43;;;;;;;;;;;;;;;;;;5204635;22;20143;-80
2023/06/23 06:02:04;;;;;;;;;;;;;;;;;;5204779;22;19926;-80
2023/06/23 06:04:25;;;;;;;;;;;;;;;;;;5227571;22;20105;-80
2023/06/23 06:06:45;;;;;;;;;;;;;;;;;;5227543;22;19918;-80
2023/06/23 06:09:05;;;;;;;;;;;;;;;;;;5213252;22;19956;-81
2023/06/23 06:11:25;;;;;;;;;;;;;;;;;;5204755;22;20017;-80
2023/06/23 06:13:46;;;;;;;;;;;;;;;;;;5227040;22;19918;-80
2023/06/23 06:16:06;;;;;;;;;;;;;;;;;;5204729;22;19917;-80
2023/06/23 06:18:26;;;;;;;;;;;;;;;;;;5227558;22;19940;-80
2023/06/23 06:20:47;;;;;;;;;;;;;;;;;;5204539;22;19926;-80
2023/06/23 06:23:07;;;;;;;;;;;;;;;;;;5227598;22;19933;-80
2023/06/23 06:25:44;;;;;;;;;;;;;;;;;;5208366;22;19917;-81
2023/06/23 06:28:05;;;;;;;;;;;;;;;;;;5204767;22;20129;-80
2023/06/23 06:30:26;;;;;;;;;;;;;;;;;;5204901;22;19926;-80
2023/06/23 06:32:46;;;;;;;;;;;;;;;;;;5227619;22;20244;-80
2023/06/23 06:35:06;;;;;;;;;;;;;;;;;;5204547;22;19968;-80
2023/06/23 06:37:26;;;;;;;;;;;;;;;;;;5227386;22;20106;-80
2023/06/23 06:39:47;;;;;;;;;;;;;;;;;;5227376;22;20279;-80
2023/06/23 06:42:07;;;;;;;;;;;;;;;;;;5204522;22;19957;-80
2023/06/23 06:44:28;;;;;;;;;;;;;;;;;;5227362;22;20109;-80
2023/06/23 06:46:47;;;;;;;;;;;;;;;;;;5227274;22;20215;-80
2023/06/23 06:49:08;;;;;;;;;;;;;;;;;;5213114;22;19926;-80
2023/06/23 06:51:28;;;;;;;;;;;;;;;;;;5204370;22;19917;-80
2023/06/23 06:53:48;;;;;;;;;;;;;;;;;;5204437;22;20114;-80
2023/06/23 06:56:08;;;;;;;;;;;;;;;;;;5204482;22;19956;-80
2023/06/23 06:58:29;;;;;;;;;;;;;;;;;;5227300;22;20234;-81
2023/06/23 07:00:49;;;;;;;;;;;;;;;;;;5227318;22;19972;-81
2023/06/23 07:03:09;;;;;;;;;;;;;;;;;;5235953;22;19952;-81
2023/06/23 07:05:30;;;;;;;;;;;;;;;;;;5204715;22;20117;-91
2023/06/23 07:07:50;;;;;;;;;;;;;;;;;;5149630;23;19960;-91
2023/06/23 07:10:11;;;;;;;;;;;;;;;;;;5137430;23;20089;-91
2023/06/23 07:12:31;;;;;;;;;;;;;;;;;;5136685;23;19975;-91
2023/06/23 07:14:54;;;;;;;;;;;;;;;;;;5137042;23;19919;-91
2023/06/23 07:17:14;;;;;;;;;;;;;;;;;;5128010;23;19919;-90
2023/06/23 07:19:36;;;;;;;;;;;;;;;;;;5128132;23;19935;-91
2023/06/23 07:21:56;;;;;;;;;;;;;;;;;;5149118;23;19934;-92
2023/06/23 07:24:16;;;;;;;;;;;;;;;;;;5149768;23;19950;-91
2023/06/23 07:26:37;;;;;;;;;;;;;;;;;;5129147;23;20115;-91
2023/06/23 07:28:57;;;;;;;;;;;;;;;;;;5129165;23;19918;-91
2023/06/23 07:31:18;;;;;;;;;;;;;;;;;;5137267;23;19975;-90
2023/06/23 07:33:38;;;;;;;;;;;;;;;;;;5150251;23;19919;-91
2023/06/23 07:35:58;;;;;;;;;;;;;;;;;;5158609;23;19919;-90
2023/06/23 07:38:18;;;;;;;;;;;;;;;;;;5171585;22;19957;-90
2023/06/23 07:40:38;;;;;;;;;;;;;;;;;;5213711;22;19964;-91
2023/06/23 07:42:59;;;;;;;;;;;;;;;;;;5205314;22;19957;-91
2023/06/23 07:45:19;;;;;;;;;;;;;;;;;;5228043;22;20224;-91
2023/06/23 07:47:39;;;;;;;;;;;;;;;;;;5205140;22;19918;-91
2023/06/23 07:50:00;;;;;;;;;;;;;;;;;;5236825;22;20212;-91
2023/06/23 07:52:20;;;;;;;;;;;;;;;;;;5228067;22;19918;-91
2023/06/23 07:54:40;;;;;;;;;;;;;;;;;;5205173;22;19925;-91
2023/06/23 07:57:01;;;;;;;;;;;;;;;;;;5205158;22;20001;-91
2023/06/23 07:59:21;;;;;;;;;;;;;;;;;;5228118;22;19975;-91
2023/06/23 08:01:42;;;;;;;;;;;;;;;;;;5205188;22;19969;-92
2023/06/23 08:04:02;;;;;;;;;;;;;;;;;;5205270;22;19917;-91
2023/06/23 08:06:23;;;;;;;;;;;;;;;;;;5205172;22;19917;-91
2023/06/23 08:08:47;;;;;;;;;;;;;;;;;;5205077;22;19938;-90
2023/06/23 08:11:07;;;;;;;;;;;;;;;;;;5205116;22;19918;-87
2023/06/23 08:13:27;;;;;;;;;;;;;;;;;;5205274;22;19917;-92
2023/06/23 08:15:47;;;;;;;;;;;;;;;;;;5205086;22;19952;-92
2023/06/23 08:18:07;;;;;;;;;;;;;;;;;;5228074;22;19932;-93
2023/06/23 08:20:28;;;;;;;;;;;;;;;;;;5205232;22;19918;-92
2023/06/23 08:22:49;;;;;;;;;;;;;;;;;;5227999;22;19917;-91
2023/06/23 08:25:09;;;;;;;;;;;;;;;;;;5228105;22;19917;-93
2023/06/23 08:27:29;;;;;;;;;;;;;;;;;;5205096;22;19918;-92
2023/06/23 08:29:49;;;;;;;;;;;;;;;;;;5236681;22;19917;-92
2023/06/23 08:32:10;;;;;;;;;;;;;;;;;;5205118;22;20006;-90
2023/06/23 08:34:30;;;;;;;;;;;;;;;;;;5205253;22;19917;-91
2023/06/23 08:36:50;;;;;;;;;;;;;;;;;;5204848;22;19917;-92
2023/06/23 08:39:11;;;;;;;;;;;;;;;;;;5205087;22;19946;-92
2023/06/23 08:41:31;;;;;;;;;;;;;;;;;;5228048;22;19925;-93
2023/06/23 08:43:52;;;;;;;;;;;;;;;;;;5228100;22;20213;-93
2023/06/23 08:46:13;;;;;;;;;;;;;;;;;;5204957;22;19925;-93
2023/06/23 08:48:33;;;;;;;;;;;;;;;;;;5213555;22;19926;-91
2023/06/23 08:50:53;;;;;;;;;;;;;;;;;;5205099;22;20272;-93
2023/06/23 08:53:14;;;;;;;;;;;;;;;;;;5213620;22;19953;-93
2023/06/23 08:55:34;;;;;;;;;;;;;;;;;;5213754;22;19952;-91
2023/06/23 08:58:00;;;;;;;;;;;;;;;;;;5205264;22;19918;-93
2023/06/23 09:00:21;;;;;;;;;;;;;;;;;;5205159;22;19918;-93
2023/06/23 09:02:42;;;;;;;;;;;;;;;;;;5205578;22;19918;-95
2023/06/23 09:05:02;;;;;;;;;;;;;;;;;;5205369;22;20109;-82
2023/06/23 09:07:24;;;;;;;;;;;;;;;;;;5204768;22;20268;-81
2023/06/23 09:09:48;;;;;;;;;;;;;;;;;;5204782;22;19921;-82
2023/06/23 09:12:08;;;;;;;;;;;;;;;;;;5227817;22;19941;-82
2023/06/23 09:14:28;;;;;;;;;;;;;;;;;;5204960;22;19918;-82
2023/06/23 09:16:48;;;;;;;;;;;;;;;;;;5204852;22;20129;-82
2023/06/23 09:19:08;;;;;;;;;;;;;;;;;;5227758;22;19970;-82
2023/06/23 09:21:28;;;;;;;;;;;;;;;;;;5227880;22;19917;-82
2023/06/23 09:23:49;;;;;;;;;;;;;;;;;;5204875;22;19918;-82
2023/06/23 09:26:09;;;;;;;;;;;;;;;;;;5227867;22;19926;-82
2023/06/23 09:28:29;;;;;;;;;;;;;;;;;;5227868;22;19926;-82
2023/06/23 09:30:49;;;;;;;;;;;;;;;;;;5204834;22;19967;-82
2023/06/23 09:33:10;;;;;;;;;;;;;;;;;;5204728;22;20169;-82
2023/06/23 09:35:30;;;;;;;;;;;;;;;;;;5204820;22;19917;-82
2023/06/23 09:37:50;;;;;;;;;;;;;;;;;;5227744;22;19932;-82
2023/06/23 09:40:10;;;;;;;;;;;;;;;;;;5227616;22;20152;-82
2023/06/23 09:42:30;;;;;;;;;;;;;;;;;;5204755;22;20267;-81
2023/06/23 09:44:51;;;;;;;;;;;;;;;;;;5204818;22;19930;-81
2023/06/23 09:47:11;;;;;;;;;;;;;;;;;;5204448;22;20160;-82
2023/06/23 09:49:31;;;;;;;;;;;;;;;;;;5204737;22;19933;-82
2023/06/23 09:51:51;;;;;;;;;;;;;;;;;;5227747;22;19917;-81
2023/06/23 09:54:12;;;;;;;;;;;;;;;;;;5204740;22;19919;-81
2023/06/23 09:56:32;;;;;;;;;;;;;;;;;;5202983;22;20365;-82
2023/06/23 09:58:53;;;;;;;;;;;;;;;;;;5227816;22;20166;-81
2023/06/23 10:01:13;;;;;;;;;;;;;;;;;;5227623;22;19968;-81
2023/06/23 10:03:34;;;;;;;;;;;;;;;;;;5204584;22;20160;-82
2023/06/23 10:05:54;;;;;;;;;;;;;;;;;;5227684;22;20225;-82
2023/06/23 10:08:14;;;;;;;;;;;;;;;;;;5188503;22;20153;-81
2023/06/23 10:10:35;;;;;;;;;;;;;;;;;;5236093;22;19962;-82
2023/06/23 10:12:55;;;;;;;;;;;;;;;;;;5227598;22;19926;-81
2023/06/23 10:15:15;;;;;;;;;;;;;;;;;;5204748;22;19926;-82
2023/06/23 10:17:36;;;;;;;;;;;;;;;;;;5227521;22;19930;-82
2023/06/23 10:19:56;;;;;;;;;;;;;;;;;;5236162;22;19925;-82
2023/06/23 10:22:17;;;;;;;;;;;;;;;;;;5213271;22;19945;-82
2023/06/23 10:24:37;;;;;;;;;;;;;;;;;;5204681;22;19918;-82
2023/06/23 10:26:58;;;;;;;;;;;;;;;;;;5227422;22;19917;-82
2023/06/23 10:29:19;;;;;;;;;;;;;;;;;;5204578;22;19918;-81
2023/06/23 10:31:39;;;;;;;;;;;;;;;;;;5227488;22;20151;-82
2023/06/23 10:34:00;;;;;;;;;;;;;;;;;;5204478;22;20268;-81
2023/06/23 10:36:20;;;;;;;;;;;;;;;;;;5204580;22;19962;-81
2023/06/23 10:38:42;;;;;;;;;;;;;;;;;;5204552;22;20102;-81
2023/06/23 10:41:02;;;;;;;;;;;;;;;;;;5212855;22;19918;-81
2023/06/23 10:43:23;;;;;;;;;;;;;;;;;;5204525;22;19990;-81
2023/06/23 10:45:43;;;;;;;;;;;;;;;;;;5227472;22;20109;-81
2023/06/23 10:48:03;;;;;;;;;;;;;;;;;;5227298;22;19934;-82
2023/06/23 10:50:23;;;;;;;;;;;;;;;;;;5235952;22;19918;-82
2023/06/23 10:52:44;;;;;;;;;;;;;;;;;;5213017;22;20210;-82
2023/06/23 10:55:04;;;;;;;;;;;;;;;;;;5235928;22;19918;-82
2023/06/23 10:57:25;;;;;;;;;;;;;;;;;;5227317;22;19918;-82
2023/06/23 10:59:45;;;;;;;;;;;;;;;;;;5229593;22;19918;-82
2023/06/23 11:02:07;;;;;;;;;;;;;;;;;;5238741;22;19949;-82
2023/06/23 11:04:27;;;;;;;;;;;;;;;;;;5230016;22;19918;-82
2023/06/23 11:06:48;;;;;;;;;;;;;;;;;;5215679;22;19961;-82
2023/06/23 11:09:08;;;;;;;;;;;;;;;;;;5207132;22;20157;-82
2023/06/23 11:11:28;;;;;;;;;;;;;;;;;;5230020;22;20263;-82
2023/06/23 11:13:49;;;;;;;;;;;;;;;;;;5207089;22;19956;-82
2023/06/23 11:16:09;;;;;;;;;;;;;;;;;;5215703;22;19918;-82
2023/06/23 11:18:29;;;;;;;;;;;;;;;;;;5215426;22;19918;-83
2023/06/23 11:20:49;;;;;;;;;;;;;;;;;;5207005;22;20251;-82
2023/06/23 11:23:10;;;;;;;;;;;;;;;;;;5207068;22;19967;-82
2023/06/23 11:25:30;;;;;;;;;;;;;;;;;;5206984;22;19942;-83
2023/06/23 11:27:51;;;;;;;;;;;;;;;;;;5206944;22;19918;-82
2023/06/23 11:30:11;;;;;;;;;;;;;;;;;;5215558;22;19942;-82
2023/06/23 11:32:32;;;;;;;;;;;;;;;;;;5206929;22;19918;-83
2023/06/23 11:34:52;;;;;;;;;;;;;;;;;;5206811;22;20028;-83
2023/06/23 11:37:12;;;;;;;;;;;;;;;;;;5206941;22;19941;-82
2023/06/23 11:39:33;;;;;;;;;;;;;;;;;;5206870;22;19918;-82
2023/06/23 11:41:53;;;;;;;;;;;;;;;;;;5206812;22;19918;-76
2023/06/23 11:44:16;;;;;;;;;;;;;;;;;;5229867;22;19917;-76
2023/06/23 11:46:36;;;;;;;;;;;;;;;;;;5229855;22;19948;-76
2023/06/23 11:48:56;;;;;;;;;;;;;;;;;;5229739;22;19992;-76
2023/06/23 11:51:16;;;;;;;;;;;;;;;;;;5206770;22;19965;-76
2023/06/23 11:53:37;;;;;;;;;;;;;;;;;;5229821;22;19949;-76
2023/06/23 11:55:57;;;;;;;;;;;;;;;;;;5238150;22;19979;-76
2023/06/23 11:58:17;;;;;;;;;;;;;;;;;;5206687;22;19957;-76
2023/06/23 12:00:38;;;;;;;;;;;;;;;;;;5183518;22;19918;-76
2023/06/23 12:02:58;;;;;;;;;;;;;;;;;;5238300;22;19917;-76
2023/06/23 12:05:19;;;;;;;;;;;;;;;;;;5229619;22;19925;-76
2023/06/23 12:07:40;;;;;;;;;;;;;;;;;;5229552;22;20001;-76
2023/06/23 12:10:00;;;;;;;;;;;;;;;;;;5206176;22;20144;-76
2023/06/23 12:12:20;;;;;;;;;;;;;;;;;;5205014;22;20044;-76
2023/06/23 12:14:42;;;;;;;;;;;;;;;;;;5205104;22;19969;-76
2023/06/23 12:17:03;;;;;;;;;;;;;;;;;;5205164;22;19918;-76
2023/06/23 12:19:24;;;;;;;;;;;;;;;;;;5205213;22;19938;-76
2023/06/23 12:21:44;;;;;;;;;;;;;;;;;;5205284;22;19941;-83
2023/06/23 12:24:04;;;;;;;;;;;;;;;;;;5228118;22;19976;-83
2023/06/23 12:26:25;;;;;;;;;;;;;;;;;;5227902;22;19933;-83
2023/06/23 12:28:45;;;;;;;;;;;;;;;;;;5227933;22;19918;-83
2023/06/23 12:31:06;;;;;;;;;;;;;;;;;;5228037;22;19917;-83
2023/06/23 12:33:29;;;;;;;;;;;;;;;;;;5227989;22;19953;-83
2023/06/23 12:35:50;;;;;;;;;;;;;;;;;;5204912;22;19925;-83
2023/06/23 12:38:11;;;;;;;;;;;;;;;;;;5205005;22;19918;-83
2023/06/23 12:40:31;;;;;;;;;;;;;;;;;;5205131;22;19945;-83
2023/06/23 12:42:52;;;;;;;;;;;;;;;;;;5227923;22;19917;-83
2023/06/23 12:45:12;;;;;;;;;;;;;;;;;;5204978;22;19918;-83
2023/06/23 12:47:33;;;;;;;;;;;;;;;;;;5227881;22;19917;-80
2023/06/23 12:49:53;;;;;;;;;;;;;;;;;;5205003;22;19918;-80
2023/06/23 12:52:14;;;;;;;;;;;;;;;;;;5236559;22;19918;-86
2023/06/23 12:54:35;;;;;;;;;;;;;;;;;;5181169;22;19926;-86
2023/06/23 12:56:56;;;;;;;;;;;;;;;;;;5182073;22;20009;-86
2023/06/23 12:59:16;;;;;;;;;;;;;;;;;;5204838;22;19918;-86
2023/06/23 13:01:36;;;;;;;;;;;;;;;;;;5213481;22;19918;-85
2023/06/23 13:03:56;;;;;;;;;;;;;;;;;;5227851;22;19917;-86
2023/06/23 13:06:17;;;;;;;;;;;;;;;;;;5204732;22;20153;-86
2023/06/23 13:08:37;;;;;;;;;;;;;;;;;;5227830;22;20248;-86
2023/06/23 13:10:57;;;;;;;;;;;;;;;;;;5204929;22;19918;-86
2023/06/23 13:13:18;;;;;;;;;;;;;;;;;;5204839;22;20256;-85
2023/06/23 13:15:39;;;;;;;;;;;;;;;;;;5213390;22;19942;-85
2023/06/23 13:17:59;;;;;;;;;;;;;;;;;;5236464;22;19926;-85
2023/06/23 13:20:19;;;;;;;;;;;;;;;;;;5204854;22;19942;-86
2023/06/23 13:22:39;;;;;;;;;;;;;;;;;;5227431;22;19925;-86
2023/06/23 13:25:00;;;;;;;;;;;;;;;;;;5227879;22;19937;-85
2023/06/23 13:27:20;;;;;;;;;;;;;;;;;;5204777;22;19918;-85
2023/06/23 13:29:40;;;;;;;;;;;;;;;;;;5227754;22;19945;-85
2023/06/23 13:32:00;;;;;;;;;;;;;;;;;;5204943;22;19918;-85
2023/06/23 13:34:20;;;;;;;;;;;;;;;;;;5204844;22;19937;-85
2023/06/23 13:36:41;;;;;;;;;;;;;;;;;;5204678;22;19918;-85
2023/06/23 13:39:01;;;;;;;;;;;;;;;;;;5204748;22;19919;-86
2023/06/23 13:41:21;;;;;;;;;;;;;;;;;;5204718;22;19918;-86
2023/06/23 13:43:41;;;;;;;;;;;;;;;;;;5204664;22;20141;-85
2023/06/23 13:46:02;;;;;;;;;;;;;;;;;;5201997;22;19995;-88
2023/06/23 13:48:22;;;;;;;;;;;;;;;;;;5227879;22;19918;-88
2023/06/23 13:50:42;;;;;;;;;;;;;;;;;;5227733;22;19917;-87
2023/06/23 13:53:02;;;;;;;;;;;;;;;;;;5236292;22;19933;-87
2023/06/23 13:55:22;;;;;;;;;;;;;;;;;;5180918;22;20117;-87
2023/06/23 13:57:42;;;;;;;;;;;;;;;;;;5227636;22;19951;-87
2023/06/23 14:00:05;;;;;;;;;;;;;;;;;;5227574;22;19944;-87
2023/06/23 14:02:28;;;;;;;;;;;;;;;;;;5227705;22;19917;-87
2023/06/23 14:04:49;;;;;;;;;;;;;;;;;;5204804;22;19917;-87
2023/06/23 14:07:09;;;;;;;;;;;;;;;;;;5204514;22;19917;-87
2023/06/23 14:09:29;;;;;;;;;;;;;;;;;;5204601;22;19918;-87
2023/06/23 14:11:49;;;;;;;;;;;;;;;;;;5204697;22;19926;-86
2023/06/23 14:14:10;;;;;;;;;;;;;;;;;;5227581;22;19917;-87
2023/06/23 14:16:29;;;;;;;;;;;;;;;;;;5227567;22;19969;-86
2023/06/23 14:18:50;;;;;;;;;;;;;;;;;;5227673;22;19917;-86
2023/06/23 14:21:11;;;;;;;;;;;;;;;;;;5227533;22;20216;-86
2023/06/23 14:23:31;;;;;;;;;;;;;;;;;;5204557;22;20141;-87
2023/06/23 14:25:53;;;;;;;;;;;;;;;;;;5236198;22;19955;-86
2023/06/23 14:28:14;;;;;;;;;;;;;;;;;;5204718;22;19918;-85
2023/06/23 14:30:35;;;;;;;;;;;;;;;;;;5212967;22;19969;-84
2023/06/23 14:32:55;;;;;;;;;;;;;;;;;;5204314;22;19933;-84
2023/06/23 14:35:16;;;;;;;;;;;;;;;;;;5227387;22;19945;-84
2023/06/23 14:37:36;;;;;;;;;;;;;;;;;;5204498;22;19953;-84
2023/06/23 14:39:56;;;;;;;;;;;;;;;;;;5227395;22;19956;-84
2023/06/23 14:42:16;;;;;;;;;;;;;;;;;;5236226;22;20113;-84
2023/06/23 14:44:36;;;;;;;;;;;;;;;;;;5202494;22;20110;-85
2023/06/23 14:46:57;;;;;;;;;;;;;;;;;;5204533;22;19981;-84
2023/06/23 14:49:17;;;;;;;;;;;;;;;;;;5204509;22;19933;-84
2023/06/23 14:51:37;;;;;;;;;;;;;;;;;;5180288;22;19919;-84
2023/06/23 14:53:58;;;;;;;;;;;;;;;;;;5227386;22;19918;-85
2023/06/23 14:56:18;;;;;;;;;;;;;;;;;;5227443;22;19917;-85
2023/06/23 14:58:39;;;;;;;;;;;;;;;;;;5227350;22;19962;-85
2023/06/23 15:00:59;;;;;;;;;;;;;;;;;;5204278;22;19949;-84
2023/06/23 15:03:20;;;;;;;;;;;;;;;;;;5227380;22;19963;-84
2023/06/23 15:05:41;;;;;;;;;;;;;;;;;;5204633;22;19933;-85
2023/06/23 15:08:02;;;;;;;;;;;;;;;;;;5212667;22;19917;-85
2023/06/23 15:10:22;;;;;;;;;;;;;;;;;;5204273;22;20149;-85
2023/06/23 15:12:42;;;;;;;;;;;;;;;;;;5204394;22;20088;-85
2023/06/23 15:15:03;;;;;;;;;;;;;;;;;;5212726;22;19945;-85
2023/06/23 15:17:23;;;;;;;;;;;;;;;;;;5204090;22;19918;-86
2023/06/23 15:19:43;;;;;;;;;;;;;;;;;;5227195;22;19934;-85
2023/06/23 15:22:06;;;;;;;;;;;;;;;;;;5227121;22;19918;-86
2023/06/23 15:24:26;;;;;;;;;;;;;;;;;;5227060;22;19977;-86
2023/06/23 15:26:46;;;;;;;;;;;;;;;;;;5227176;22;19952;-86
2023/06/23 15:29:07;;;;;;;;;;;;;;;;;;5227031;22;19925;-86
2023/06/23 15:31:27;;;;;;;;;;;;;;;;;;5204037;22;20133;-86
2023/06/23 15:33:47;;;;;;;;;;;;;;;;;;5204147;22;20241;-86
2023/06/23 15:36:08;;;;;;;;;;;;;;;;;;5226990;22;20049;-86
2023/06/23 15:38:28;;;;;;;;;;;;;;;;;;5203949;22;20107;-86
2023/06/23 15:40:48;;;;;;;;;;;;;;;;;;5226863;22;19918;-86
2023/06/23 15:43:08;;;;;;;;;;;;;;;;;;5227057;22;19917;-86
2023/06/23 15:45:28;;;;;;;;;;;;;;;;;;5204631;22;19982;-86
2023/06/23 15:47:49;;;;;;;;;;;;;;;;;;5228054;22;20155;-86
2023/06/23 15:50:09;;;;;;;;;;;;;;;;;;5228179;22;19974;-86
2023/06/23 15:52:29;;;;;;;;;;;;;;;;;;5228141;22;20113;-86
2023/06/23 15:54:50;;;;;;;;;;;;;;;;;;5183565;22;19918;-86
2023/06/23 15:57:10;;;;;;;;;;;;;;;;;;5213756;22;19945;-86
2023/06/23 15:59:30;;;;;;;;;;;;;;;;;;5213679;22;19949;-86